createdAt,value
2023-01-20T00:00:43.398Z,1.11
2023-01-20T00:03:09.967Z,1.12
2023-01-20T00:05:37.855Z,1.12
2023-01-20T00:08:05.130Z,1.12
2023-01-20T00:10:31.669Z,1.12
2023-01-20T00:12:58.216Z,1.10
2023-01-20T00:15:24.751Z,1.11
2023-01-20T00:17:51.354Z,1.08
2023-01-20T00:20:17.968Z,1.09
2023-01-20T00:22:45.937Z,1.03
2023-01-20T00:25:12.941Z,1.10
2023-01-20T00:27:39.731Z,1.13
2023-01-20T00:30:07.784Z,1.11
2023-01-20T00:32:37.218Z,1.03
2023-01-20T00:35:04.350Z,1.10
2023-01-20T00:37:31.055Z,1.08
2023-01-20T00:39:58.923Z,1.12
2023-01-20T00:42:25.508Z,1.08
2023-01-20T00:44:52.086Z,1.03
2023-01-20T00:47:18.688Z,1.01
2023-01-20T00:49:45.416Z,1.00
2023-01-20T00:52:12.090Z,0.99
2023-01-20T00:54:38.635Z,1.00
2023-01-20T00:57:06.870Z,1.03
2023-01-20T00:59:33.405Z,1.04
2023-01-20T01:02:00.054Z,1.05
2023-01-20T01:04:26.716Z,1.06
2023-01-20T01:06:53.466Z,1.08
2023-01-20T01:09:20.382Z,1.10
2023-01-20T01:11:46.987Z,1.11
2023-01-20T01:14:15.380Z,1.12
2023-01-20T01:16:42.087Z,1.11
2023-01-20T01:19:08.625Z,1.08
2023-01-20T01:21:35.248Z,1.10
2023-01-20T01:24:01.801Z,0.95
2023-01-20T01:26:28.447Z,1.09
2023-01-20T01:28:55.069Z,0.93
2023-01-20T01:31:23.177Z,1.09
2023-01-20T01:33:49.720Z,1.11
2023-01-20T01:36:17.253Z,1.11
2023-01-20T01:38:44.385Z,1.07
2023-01-20T01:41:12.758Z,0.95
2023-01-20T01:43:40.037Z,1.10
2023-01-20T01:46:06.964Z,0.94
2023-01-20T01:48:38.920Z,1.07
2023-01-20T01:51:07.362Z,1.03
2023-01-20T01:53:39.435Z,1.07
2023-01-20T01:56:06.775Z,1.04
2023-01-20T01:58:36.797Z,0.98
2023-01-20T02:01:04.049Z,0.63
2023-01-20T02:03:40.125Z,0.89
2023-01-20T02:06:07.422Z,0.78
2023-01-20T02:08:34.194Z,0.85
2023-01-20T02:11:00.810Z,0.86
2023-01-20T02:13:27.397Z,0.86
2023-01-20T02:16:04.815Z,0.87
2023-01-20T02:18:47.766Z,0.87
2023-01-20T02:21:47.719Z,0.85
2023-01-20T02:24:49.458Z,0.85
2023-01-20T02:27:24.852Z,0.85
2023-01-20T02:30:34.965Z,0.85
2023-01-20T02:33:10.167Z,0.86
2023-01-20T02:35:41.907Z,0.79
2023-01-20T02:38:16.387Z,0.65
2023-01-20T02:40:53.931Z,0.75
2023-01-20T02:43:30.351Z,0.71
2023-01-20T02:46:02.841Z,0.70
2023-01-20T02:48:36.681Z,0.68
2023-01-20T02:51:09.684Z,0.68
2023-01-20T02:53:41.624Z,0.39
2023-01-20T02:56:10.947Z,0.73
2023-01-20T02:58:42.126Z,0.75
2023-01-20T03:01:13.080Z,0.75
2023-01-20T03:03:46.449Z,0.79
2023-01-20T03:06:17.434Z,0.77
2023-01-20T03:08:47.314Z,0.79
2023-01-20T03:11:14.374Z,0.72
2023-01-20T03:13:46.373Z,0.86
2023-01-20T03:16:14.900Z,0.81
2023-01-20T03:18:43.031Z,0.80
2023-01-20T03:21:10.766Z,0.81
2023-01-20T03:23:40.261Z,0.74
2023-01-20T03:26:09.032Z,0.84
2023-01-20T03:28:35.651Z,0.87
2023-01-20T03:31:10.708Z,0.89
2023-01-20T03:33:37.580Z,0.90
2023-01-20T03:36:06.406Z,0.91
2023-01-20T03:38:33.148Z,0.90
2023-01-20T03:41:07.457Z,0.77
2023-01-20T03:43:43.664Z,0.89
2023-01-20T03:46:19.240Z,0.97
2023-01-20T03:48:51.468Z,0.97
2023-01-20T03:51:27.138Z,1.01
2023-01-20T03:53:57.433Z,1.03
2023-01-20T03:56:28.394Z,1.03
2023-01-20T03:58:59.852Z,1.11
2023-01-20T04:01:32.547Z,1.00
2023-01-20T04:04:00.975Z,0.97
2023-01-20T04:06:30.467Z,0.89
2023-01-20T04:09:02.454Z,0.89
2023-01-20T04:11:28.922Z,0.93
2023-01-20T04:13:55.471Z,0.96
2023-01-20T04:16:23.432Z,0.98
2023-01-20T04:18:51.716Z,0.92
2023-01-20T04:21:25.067Z,0.99
2023-01-20T04:23:58.634Z,1.05
2023-01-20T04:26:25.238Z,1.04
2023-01-20T04:28:51.814Z,0.90
2023-01-20T04:31:30.232Z,1.03
2023-01-20T04:33:58.002Z,1.04
2023-01-20T04:36:24.773Z,1.02
2023-01-20T04:38:52.771Z,1.10
2023-01-20T04:41:19.598Z,1.13
2023-01-20T04:43:46.744Z,1.08
2023-01-20T04:46:13.758Z,1.04
2023-01-20T04:48:40.612Z,0.96
2023-01-20T04:51:07.967Z,0.98
2023-01-20T04:53:35.069Z,0.94
2023-01-20T04:56:03.024Z,0.92
2023-01-20T04:58:29.649Z,0.90
2023-01-20T05:00:56.379Z,0.86
2023-01-20T05:03:23.007Z,0.83
2023-01-20T05:05:53.130Z,0.78
2023-01-20T05:08:19.756Z,0.76
2023-01-20T05:10:46.439Z,0.71
2023-01-20T05:13:15.570Z,0.64
2023-01-20T05:15:43.639Z,0.63
2023-01-20T05:18:10.246Z,0.65
2023-01-20T05:20:36.792Z,0.59
2023-01-20T05:23:03.340Z,0.63
2023-01-20T05:25:29.875Z,0.61
2023-01-20T05:27:56.398Z,0.61
2023-01-20T05:30:24.296Z,0.54
2023-01-20T05:32:50.918Z,0.47
2023-01-20T05:35:18.051Z,0.53
2023-01-20T05:37:44.576Z,0.30
2023-01-20T05:40:12.570Z,0.48
2023-01-20T05:42:39.435Z,0.46
2023-01-20T05:45:07.238Z,0.52
2023-01-20T05:47:35.135Z,0.38
2023-01-20T05:50:01.650Z,0.43
2023-01-20T05:52:28.151Z,0.41
2023-01-20T05:54:54.680Z,0.43
2023-01-20T05:57:23.832Z,0.44
2023-01-20T05:59:50.379Z,0.43
2023-01-20T06:02:17.119Z,0.38
2023-01-20T06:04:44.999Z,0.32
2023-01-20T06:07:11.718Z,0.40
2023-01-20T06:09:38.262Z,0.39
2023-01-20T06:12:05.430Z,0.44
2023-01-20T06:14:31.995Z,0.38
2023-01-20T06:16:58.537Z,0.50
2023-01-20T06:19:25.157Z,0.47
2023-01-20T06:21:53.208Z,0.49
2023-01-20T06:24:19.747Z,0.51
2023-01-20T06:26:46.255Z,0.51
2023-01-20T06:29:12.775Z,0.54
2023-01-20T06:31:39.475Z,0.52
2023-01-20T06:34:06.019Z,0.59
2023-01-20T06:36:32.539Z,0.57
2023-01-20T06:39:00.644Z,0.56
2023-01-20T06:41:27.196Z,0.57
2023-01-20T06:43:53.736Z,0.57
2023-01-20T06:46:20.414Z,0.59
2023-01-20T06:48:47.003Z,0.59
2023-01-20T06:51:15.793Z,0.58
2023-01-20T06:53:42.941Z,0.67
2023-01-20T06:56:12.713Z,0.62
2023-01-20T06:58:39.686Z,0.59
2023-01-20T07:01:08.828Z,0.50
2023-01-20T07:03:35.770Z,0.60
2023-01-20T07:06:05.431Z,0.62
2023-01-20T07:08:32.063Z,0.61
2023-01-20T07:10:58.707Z,0.65
2023-01-20T07:13:26.623Z,0.64
2023-01-20T07:15:53.260Z,0.62
2023-01-20T07:18:19.802Z,0.65
2023-01-20T07:20:46.361Z,0.63
2023-01-20T07:23:12.947Z,0.65
2023-01-20T07:25:39.464Z,0.66
2023-01-20T07:28:05.971Z,0.71
2023-01-20T07:30:33.889Z,0.72
2023-01-20T07:33:00.609Z,0.74
2023-01-20T07:35:27.255Z,0.72
2023-01-20T07:37:53.781Z,0.71
2023-01-20T07:40:20.477Z,0.72
2023-01-20T07:42:47.048Z,0.74
2023-01-20T07:45:14.083Z,0.68
2023-01-20T07:47:42.120Z,0.77
2023-01-20T07:50:09.727Z,0.77
2023-01-20T07:52:36.261Z,0.81
2023-01-20T07:55:02.880Z,0.83
2023-01-20T07:57:29.516Z,0.81
2023-01-20T07:59:56.093Z,0.81
2023-01-20T08:02:22.648Z,0.80
2023-01-20T08:04:50.610Z,0.80
2023-01-20T08:07:17.189Z,0.82
2023-01-20T08:09:44.011Z,0.79
2023-01-20T08:12:10.567Z,0.88
2023-01-20T08:14:37.938Z,0.91
2023-01-20T08:17:04.613Z,0.81
2023-01-20T08:19:31.142Z,0.91
2023-01-20T08:21:59.026Z,0.98
2023-01-20T08:24:25.649Z,0.98
2023-01-20T08:26:52.309Z,0.99
2023-01-20T08:29:19.193Z,1.02
2023-01-20T08:31:45.897Z,1.04
2023-01-20T08:34:12.487Z,1.09
2023-01-20T08:36:40.789Z,1.16
2023-01-20T08:39:13.064Z,1.19
2023-01-20T08:41:42.800Z,1.23
2023-01-20T08:44:10.530Z,1.29
2023-01-20T08:46:41.214Z,1.27
2023-01-20T08:49:09.008Z,1.33
2023-01-20T08:51:35.833Z,1.27
2023-01-20T08:54:02.705Z,1.39
2023-01-20T08:56:31.369Z,1.41
2023-01-20T08:58:58.676Z,1.47
2023-01-20T09:01:28.068Z,1.51
2023-01-20T09:04:05.472Z,1.52
2023-01-20T09:06:40.913Z,1.56
2023-01-20T09:09:07.808Z,1.59
2023-01-20T09:11:36.021Z,1.65
2023-01-20T09:14:02.604Z,1.67
2023-01-20T09:16:29.220Z,1.72
2023-01-20T09:18:55.790Z,1.77
2023-01-20T09:21:23.677Z,1.83
2023-01-20T09:23:50.239Z,1.88
2023-01-20T09:26:29.790Z,1.95
2023-01-20T09:29:02.787Z,2.00
2023-01-20T09:31:29.415Z,2.06
2023-01-20T09:33:55.969Z,2.13
2023-01-20T09:36:22.487Z,2.23
2023-01-20T09:38:49.084Z,2.31
2023-01-20T09:41:18.267Z,2.39
2023-01-20T09:43:54.115Z,2.40
2023-01-20T09:46:31.229Z,2.51
2023-01-20T09:49:08.060Z,2.58
2023-01-20T09:51:46.115Z,2.55
2023-01-20T09:54:20.079Z,2.63
2023-01-20T09:56:49.382Z,2.69
2023-01-20T09:59:22.851Z,2.77
2023-01-20T10:01:54.675Z,2.71
2023-01-20T10:04:27.733Z,2.69
2023-01-20T10:07:02.965Z,2.82
2023-01-20T10:09:36.187Z,2.69
2023-01-20T10:12:08.099Z,2.83
2023-01-20T10:14:40.468Z,2.93
2023-01-20T10:17:16.257Z,3.00
2023-01-20T10:19:49.399Z,2.92
2023-01-20T10:22:20.700Z,2.90
2023-01-20T10:24:52.914Z,2.87
2023-01-20T10:27:19.481Z,2.78
2023-01-20T10:29:51.807Z,2.84
2023-01-20T10:32:24.572Z,2.83
2023-01-20T10:34:56.425Z,2.85
2023-01-20T10:37:24.261Z,2.88
2023-01-20T10:39:55.890Z,2.85
2023-01-20T10:42:22.575Z,2.82
2023-01-20T10:44:52.378Z,2.78
2023-01-20T10:47:25.348Z,2.68
2023-01-20T10:50:09.539Z,2.76
2023-01-20T10:53:06.062Z,2.81
2023-01-20T10:55:43.254Z,2.84
2023-01-20T10:58:18.236Z,2.81
2023-01-20T11:00:45.050Z,2.86
2023-01-20T11:03:17.712Z,2.93
2023-01-20T11:05:46.515Z,2.79
2023-01-20T11:08:18.359Z,2.89
2023-01-20T11:10:46.813Z,2.96
2023-01-20T11:13:13.477Z,3.00
2023-01-20T11:15:43.847Z,3.03
2023-01-20T11:18:23.014Z,2.84
2023-01-20T11:20:52.012Z,3.00
2023-01-20T11:23:23.663Z,3.10
2023-01-20T11:25:56.264Z,3.07
2023-01-20T11:28:23.859Z,3.08
2023-01-20T11:30:55.417Z,3.20
2023-01-20T11:33:25.939Z,3.11
2023-01-20T11:36:01.261Z,3.24
2023-01-20T11:38:30.382Z,3.12
2023-01-20T11:40:58.116Z,3.13
2023-01-20T11:43:28.777Z,3.07
2023-01-20T11:46:13.556Z,3.05
2023-01-20T11:48:41.889Z,3.02
2023-01-20T11:51:19.785Z,2.98
2023-01-20T11:53:46.774Z,3.02
2023-01-20T11:56:19.744Z,2.99
2023-01-20T11:58:51.822Z,3.03
2023-01-20T12:01:23.295Z,3.02
2023-01-20T12:04:17.651Z,3.08
2023-01-20T12:06:51.578Z,3.08
2023-01-20T12:09:23.028Z,3.08
2023-01-20T12:11:55.990Z,3.07
2023-01-20T12:14:27.524Z,3.18
2023-01-20T12:17:12.919Z,3.21
2023-01-20T12:19:53.702Z,3.16
2023-01-20T12:22:25.748Z,3.17
2023-01-20T12:24:56.217Z,3.27
2023-01-20T12:27:26.985Z,3.21
2023-01-20T12:29:58.325Z,3.22
2023-01-20T12:32:24.956Z,3.23
2023-01-20T12:34:52.911Z,3.25
2023-01-20T12:37:28.655Z,3.29
2023-01-20T12:40:18.862Z,3.35
2023-01-20T12:43:12.810Z,3.28
2023-01-20T12:45:53.080Z,3.24
2023-01-20T12:48:34.691Z,3.29
2023-01-20T12:51:14.650Z,3.41
2023-01-20T12:54:02.947Z,3.33
2023-01-20T12:56:40.018Z,3.05
2023-01-20T12:59:17.041Z,3.23
2023-01-20T13:02:08.051Z,3.18
2023-01-20T13:05:06.377Z,3.10
2023-01-20T13:07:52.442Z,3.05
2023-01-20T13:10:33.065Z,3.11
2023-01-20T13:13:10.811Z,3.05
2023-01-20T13:15:42.659Z,3.08
2023-01-20T13:18:21.394Z,3.16
2023-01-20T13:20:48.909Z,3.16
2023-01-20T13:23:23.441Z,3.17
2023-01-20T13:25:51.504Z,3.00
2023-01-20T13:28:21.150Z,3.15
2023-01-20T13:30:49.614Z,3.19
2023-01-20T13:33:33.019Z,2.81
2023-01-20T13:36:00.811Z,2.88
2023-01-20T13:38:30.320Z,3.25
2023-01-20T13:40:58.302Z,3.09
2023-01-20T13:43:46.662Z,3.19
2023-01-20T13:46:44.979Z,3.26
2023-01-20T13:49:14.945Z,3.32
2023-01-20T13:51:46.162Z,3.21
2023-01-20T13:54:52.329Z,3.21
2023-01-20T13:57:47.459Z,3.24
2023-01-20T14:00:19.454Z,3.17
2023-01-20T14:02:47.911Z,3.12
2023-01-20T14:05:27.024Z,3.08
2023-01-20T14:07:54.250Z,3.02
2023-01-20T14:10:20.880Z,2.98
2023-01-20T14:12:49.226Z,2.80
2023-01-20T14:15:34.972Z,2.92
2023-01-20T14:18:02.460Z,2.86
2023-01-20T14:20:30.086Z,2.83
2023-01-20T14:23:25.091Z,2.72
2023-01-20T14:26:08.239Z,2.60
2023-01-20T14:28:41.135Z,2.60
2023-01-20T14:31:34.438Z,2.56
2023-01-20T14:34:18.475Z,2.44
2023-01-20T14:36:45.992Z,2.44
2023-01-20T14:39:19.755Z,2.34
2023-01-20T14:41:47.940Z,2.40
2023-01-20T14:44:19.498Z,2.13
2023-01-20T14:46:48.296Z,2.20
2023-01-20T14:49:17.151Z,2.27
2023-01-20T14:51:46.097Z,2.20
2023-01-20T14:54:39.156Z,2.07
2023-01-20T14:57:20.096Z,2.04
2023-01-20T14:59:59.043Z,1.92
2023-01-20T15:02:29.785Z,1.99
2023-01-20T15:04:56.488Z,1.89
2023-01-20T15:07:24.437Z,1.80
2023-01-20T15:09:55.185Z,1.86
2023-01-20T15:12:38.948Z,1.84
2023-01-20T15:15:23.286Z,1.81
2023-01-20T15:18:20.634Z,1.80
2023-01-20T15:20:50.198Z,1.79
2023-01-20T15:23:30.094Z,1.88
2023-01-20T15:26:06.050Z,1.79
2023-01-20T15:28:37.368Z,1.74
2023-01-20T15:31:05.549Z,1.83
2023-01-20T15:33:32.190Z,1.74
2023-01-20T15:36:00.634Z,1.55
2023-01-20T15:38:30.270Z,1.67
2023-01-20T15:40:56.843Z,1.61
2023-01-20T15:43:23.458Z,1.35
2023-01-20T15:45:50.082Z,1.18
2023-01-20T15:48:19.936Z,1.45
2023-01-20T15:50:47.327Z,1.42
2023-01-20T15:53:14.442Z,1.32
2023-01-20T15:55:46.847Z,1.30
2023-01-20T15:58:24.007Z,1.29
2023-01-20T16:00:51.052Z,1.12
2023-01-20T16:03:18.946Z,1.23
2023-01-20T16:05:48.092Z,0.98
2023-01-20T16:08:16.051Z,1.20
2023-01-20T16:10:43.014Z,0.97
2023-01-20T16:13:09.902Z,1.15
2023-01-20T16:15:37.123Z,1.15
2023-01-20T16:18:04.097Z,1.14
2023-01-20T16:20:35.147Z,1.10
2023-01-20T16:23:01.862Z,1.12
2023-01-20T16:25:29.336Z,1.10
2023-01-20T16:27:57.098Z,0.75
2023-01-20T16:30:23.835Z,1.05
2023-01-20T16:32:50.840Z,0.96
2023-01-20T16:35:19.051Z,1.08
2023-01-20T16:37:47.663Z,1.10
2023-01-20T16:40:15.371Z,0.92
2023-01-20T16:42:42.293Z,1.10
2023-01-20T16:45:20.869Z,1.10
2023-01-20T16:47:47.875Z,1.07
2023-01-20T16:50:15.173Z,1.11
2023-01-20T16:52:42.164Z,1.19
2023-01-20T16:55:13.338Z,1.17
2023-01-20T16:57:40.307Z,1.17
2023-01-20T17:00:08.933Z,1.14
2023-01-20T17:02:35.675Z,1.16
2023-01-20T17:05:02.230Z,0.90
2023-01-20T17:07:28.868Z,0.90
2023-01-20T17:09:55.398Z,1.19
2023-01-20T17:12:23.413Z,1.21
2023-01-20T17:14:50.105Z,1.14
2023-01-20T17:17:16.728Z,1.11
2023-01-20T17:19:43.269Z,0.88
2023-01-20T17:22:09.956Z,0.97
2023-01-20T17:24:36.757Z,1.02
2023-01-20T17:27:03.531Z,1.03
2023-01-20T17:29:31.487Z,0.99
2023-01-20T17:31:58.155Z,0.96
2023-01-20T17:34:25.118Z,0.89
2023-01-20T17:36:51.767Z,0.82
2023-01-20T17:39:18.286Z,0.77
2023-01-20T17:41:44.898Z,0.77
2023-01-20T17:44:12.465Z,0.77
2023-01-20T17:46:40.461Z,0.81
2023-01-20T17:49:07.275Z,0.74
2023-01-20T17:51:34.253Z,0.72
2023-01-20T17:54:03.517Z,0.72
2023-01-20T17:56:30.970Z,0.63
2023-01-20T17:58:57.852Z,0.70
2023-01-20T18:01:26.695Z,0.72
2023-01-20T18:03:56.421Z,0.74
2023-01-20T18:06:24.544Z,0.73
2023-01-20T18:08:53.395Z,0.72
2023-01-20T18:11:20.601Z,0.68
2023-01-20T18:13:48.423Z,0.67
2023-01-20T18:16:16.687Z,0.65
2023-01-20T18:18:44.652Z,0.64
2023-01-20T18:21:14.656Z,0.63
2023-01-20T18:23:42.396Z,0.62
2023-01-20T18:26:10.967Z,0.57
2023-01-20T18:28:37.992Z,0.53
2023-01-20T18:31:06.856Z,0.16
2023-01-20T18:33:33.689Z,0.40
2023-01-20T18:36:02.146Z,0.40
2023-01-20T18:38:30.025Z,0.35
2023-01-20T18:40:56.551Z,0.09
2023-01-20T18:43:23.169Z,0.24
2023-01-20T18:45:52.438Z,0.19
2023-01-20T18:48:18.963Z,0.13
2023-01-20T18:50:45.540Z,-0.29
2023-01-20T18:53:12.115Z,0.03
2023-01-20T18:55:39.983Z,0.00
2023-01-20T18:58:06.528Z,0.00
2023-01-20T19:00:33.054Z,0.01
2023-01-20T19:02:59.587Z,-0.12
2023-01-20T19:05:26.456Z,-0.02
2023-01-20T19:07:53.002Z,-0.07
2023-01-20T19:10:19.632Z,-0.05
2023-01-20T19:12:47.513Z,0.00
2023-01-20T19:15:14.143Z,-0.92
2023-01-20T19:17:40.664Z,-0.12
2023-01-20T19:20:08.445Z,-0.02
2023-01-20T19:22:34.951Z,-0.02
2023-01-20T19:25:01.457Z,-0.32
2023-01-20T19:27:27.993Z,-0.07
2023-01-20T19:29:55.853Z,-0.09
2023-01-20T19:32:22.358Z,-0.13
2023-01-20T19:34:48.967Z,-0.16
2023-01-20T19:37:15.473Z,-0.19
2023-01-20T19:39:42.024Z,-0.27
2023-01-20T19:42:08.567Z,-0.35
2023-01-20T19:44:35.108Z,-0.36
2023-01-20T19:47:02.973Z,-0.41
2023-01-20T19:49:29.659Z,-0.50
2023-01-20T19:51:56.329Z,-0.54
2023-01-20T19:54:22.988Z,-0.60
2023-01-20T19:56:49.535Z,-0.66
2023-01-20T19:59:16.068Z,-0.69
2023-01-20T20:01:42.640Z,-0.70
2023-01-20T20:04:11.734Z,-0.65
2023-01-20T20:06:39.641Z,-0.70
2023-01-20T20:09:09.385Z,-0.78
2023-01-20T20:11:36.145Z,-0.85
2023-01-20T20:14:04.671Z,-0.85
2023-01-20T20:16:33.168Z,-1.05
2023-01-20T20:19:00.260Z,-0.99
2023-01-20T20:21:28.166Z,-1.00
2023-01-20T20:23:56.464Z,-1.00
2023-01-20T20:26:25.178Z,-1.02
2023-01-20T20:28:52.363Z,-1.09
2023-01-20T20:31:19.648Z,-1.09
2023-01-20T20:33:46.628Z,-1.06
2023-01-20T20:36:13.805Z,-1.84
2023-01-20T20:38:41.843Z,-1.10
2023-01-20T20:41:09.077Z,-1.13
2023-01-20T20:43:36.377Z,-1.34
2023-01-20T20:46:06.342Z,-1.22
2023-01-20T20:48:33.205Z,-1.25
2023-01-20T20:51:04.651Z,-1.39
2023-01-20T20:53:31.285Z,-1.34
2023-01-20T20:55:59.228Z,-1.39
2023-01-20T20:58:25.878Z,-1.32
2023-01-20T21:00:52.442Z,-1.31
2023-01-20T21:03:19.101Z,-1.47
2023-01-20T21:05:46.874Z,-1.84
2023-01-20T21:08:13.469Z,-1.42
2023-01-20T21:10:40.572Z,-1.46
2023-01-20T21:13:08.533Z,-1.50
2023-01-20T21:15:36.520Z,-1.51
2023-01-20T21:18:03.861Z,-1.59
2023-01-20T21:20:30.427Z,-1.59
2023-01-20T21:22:57.027Z,-1.56
2023-01-20T21:25:23.841Z,-1.64
2023-01-20T21:27:50.725Z,-1.67
2023-01-20T21:30:19.262Z,-1.64
2023-01-20T21:32:45.987Z,-1.69
2023-01-20T21:35:12.549Z,-1.77
2023-01-20T21:37:39.269Z,-1.96
2023-01-20T21:40:06.988Z,-1.82
2023-01-20T21:42:33.920Z,-1.86
2023-01-20T21:45:00.441Z,-1.82
2023-01-20T21:47:28.426Z,-1.84
2023-01-20T21:49:54.953Z,-2.12
2023-01-20T21:52:23.006Z,-1.87
2023-01-20T21:54:49.825Z,-1.97
2023-01-20T21:57:16.436Z,-1.97
2023-01-20T21:59:43.199Z,-1.99
2023-01-20T22:02:12.341Z,-2.00
2023-01-20T22:04:40.310Z,-1.91
2023-01-20T22:07:07.133Z,-1.87
2023-01-20T22:09:33.716Z,-2.02
2023-01-20T22:12:00.353Z,-2.25
2023-01-20T22:14:26.912Z,-1.94
2023-01-20T22:16:53.576Z,-1.99
2023-01-20T22:19:20.821Z,-2.02
2023-01-20T22:21:48.804Z,-1.99
2023-01-20T22:24:15.432Z,-2.06
2023-01-20T22:26:42.109Z,-2.12
2023-01-20T22:29:08.648Z,-2.16
2023-01-20T22:31:35.304Z,-2.20
2023-01-20T22:34:04.196Z,-2.30
2023-01-20T22:36:31.331Z,-2.37
2023-01-20T22:38:59.810Z,-2.28
2023-01-20T22:41:26.587Z,-2.51
2023-01-20T22:43:53.810Z,-2.54
2023-01-20T22:46:22.555Z,-2.33
2023-01-20T22:48:49.328Z,-2.28
2023-01-20T22:51:18.207Z,-2.28
2023-01-20T22:53:45.446Z,-2.30
2023-01-20T22:56:16.855Z,-2.78
2023-01-20T22:58:43.661Z,-2.34
2023-01-20T23:01:12.665Z,-2.33
2023-01-20T23:03:39.331Z,-2.58
2023-01-20T23:06:06.254Z,-2.28
2023-01-20T23:08:33.167Z,-2.36
2023-01-20T23:11:01.703Z,-2.29
2023-01-20T23:13:29.728Z,-2.32
2023-01-20T23:15:56.651Z,-2.33
2023-01-20T23:18:24.254Z,-2.40
2023-01-20T23:20:52.321Z,-2.46
2023-01-20T23:23:20.053Z,-2.56
2023-01-20T23:25:47.094Z,-2.64
2023-01-20T23:28:14.311Z,-2.70
2023-01-20T23:30:42.610Z,-2.77
2023-01-20T23:33:10.606Z,-2.81
2023-01-20T23:35:37.432Z,-2.86
2023-01-20T23:38:05.084Z,-2.81
2023-01-20T23:40:32.010Z,-2.91
2023-01-20T23:42:58.672Z,-2.90
2023-01-20T23:45:25.515Z,-2.84
2023-01-20T23:47:53.575Z,-2.78
2023-01-20T23:50:20.243Z,-3.01
2023-01-20T23:52:46.960Z,-2.79
2023-01-20T23:55:13.586Z,-3.98
2023-01-20T23:57:40.241Z,-2.80
